Time;durP1;ratioP1;P1;durP2;ratioP2;P2;SDS_P1;SDS_P2;PMS_P1;PMS_P2;Temp;Humidity;BMP_temperature;BMP_pressure;BME280_temperature;BME280_humidity;BME280_pressure;Samples;Min_cycle;Max_cycle;Signal;HPM_P1;HPM_P2
2023/01/09 06:00:13;;;;;;;1.57;1.00;;;6.40;97.20;;;;;;1727591;28;20562;-68
2023/01/09 06:01:04;;;;;;;0.90;0.80;;;6.40;97.20;;;;;;1727449;28;20675;-68
2023/01/09 06:01:56;;;;;;;1.45;0.70;;;6.40;97.20;;;;;;1727757;28;20204;-68
2023/01/09 06:02:46;;;;;;;0.70;0.57;;;6.40;97.20;;;;;;1727641;28;20572;-68
2023/01/09 06:03:38;;;;;;;0.80;0.63;;;6.40;97.20;;;;;;1727373;28;20204;-67
2023/01/09 06:04:29;;;;;;;1.58;0.70;;;6.40;97.20;;;;;;1727682;28;20594;-68
2023/01/09 06:05:21;;;;;;;1.53;0.70;;;6.40;97.20;;;;;;1727572;28;20204;-68
2023/01/09 06:06:11;;;;;;;1.20;0.70;;;6.40;97.20;;;;;;1727729;28;20964;-68
2023/01/09 06:07:03;;;;;;;0.80;0.60;;;6.40;97.20;;;;;;1727100;28;20654;-68
2023/01/09 06:07:54;;;;;;;0.85;0.60;;;6.40;97.20;;;;;;1727526;28;20196;-68
2023/01/09 06:08:45;;;;;;;0.70;0.70;;;6.40;97.20;;;;;;1726800;28;20189;-68
2023/01/09 06:09:36;;;;;;;1.70;0.70;;;6.40;97.20;;;;;;1727571;28;20209;-68
2023/01/09 06:10:28;;;;;;;1.00;0.50;;;6.40;97.20;;;;;;1727341;28;20200;-68
2023/01/09 06:11:19;;;;;;;2.67;0.70;;;6.40;97.20;;;;;;1727700;28;20232;-69
2023/01/09 06:12:10;;;;;;;0.70;0.50;;;6.40;97.20;;;;;;1727722;28;20200;-68
2023/01/09 06:13:01;;;;;;;2.10;0.60;;;6.40;97.20;;;;;;1726732;28;20200;-68
2023/01/09 06:13:53;;;;;;;1.67;0.50;;;6.40;97.20;;;;;;1727636;28;20204;-68
2023/01/09 06:14:43;;;;;;;0.98;0.50;;;6.40;97.20;;;;;;1727488;28;20209;-68
2023/01/09 06:15:36;;;;;;;0.83;0.50;;;6.30;97.20;;;;;;1727556;28;20204;-68
2023/01/09 06:16:27;;;;;;;1.80;0.70;;;6.30;97.20;;;;;;1727678;28;20202;-68
2023/01/09 06:17:19;;;;;;;1.40;0.60;;;6.30;97.20;;;;;;1727427;28;20203;-68
2023/01/09 06:18:10;;;;;;;0.88;0.65;;;6.30;97.20;;;;;;1727646;28;20196;-68
2023/01/09 06:19:01;;;;;;;1.40;0.70;;;6.30;97.20;;;;;;1727035;28;20207;-68
2023/01/09 06:19:52;;;;;;;1.40;0.85;;;6.30;97.20;;;;;;1727336;28;20205;-68
2023/01/09 06:20:44;;;;;;;0.90;0.60;;;6.30;97.20;;;;;;1727393;28;20228;-68
2023/01/09 06:21:35;;;;;;;1.85;0.98;;;6.30;97.20;;;;;;1727695;28;20262;-68
2023/01/09 06:22:27;;;;;;;1.00;0.60;;;6.30;97.20;;;;;;1727696;28;20200;-68
2023/01/09 06:23:17;;;;;;;2.17;0.70;;;6.30;97.20;;;;;;1727501;28;20204;-67
2023/01/09 06:24:09;;;;;;;1.10;0.50;;;6.30;97.20;;;;;;1727585;28;20207;-68
2023/01/09 06:25:00;;;;;;;2.05;0.70;;;6.20;97.20;;;;;;1725724;28;20307;-68
2023/01/09 06:25:51;;;;;;;1.43;0.60;;;6.20;97.20;;;;;;1727368;28;20275;-68
2023/01/09 06:26:42;;;;;;;1.15;0.70;;;6.20;97.20;;;;;;1727028;28;20205;-68
2023/01/09 06:27:34;;;;;;;0.80;0.60;;;6.20;97.20;;;;;;1727312;28;20199;-69
2023/01/09 06:28:25;;;;;;;1.40;0.80;;;6.20;97.20;;;;;;1727543;28;20681;-69
2023/01/09 06:29:16;;;;;;;1.47;0.70;;;6.20;97.20;;;;;;1726656;28;20590;-69
2023/01/09 06:30:08;;;;;;;1.30;0.60;;;6.20;97.20;;;;;;1727154;28;20196;-69
2023/01/09 06:31:02;;;;;;;1.52;0.70;;;6.20;97.20;;;;;;1727235;28;20224;-68
2023/01/09 06:31:52;;;;;;;0.82;0.70;;;6.20;97.20;;;;;;1727268;28;20196;-68
2023/01/09 06:32:44;;;;;;;0.80;0.60;;;6.20;97.20;;;;;;1727321;28;20204;-68
2023/01/09 06:33:35;;;;;;;1.77;0.70;;;6.20;97.20;;;;;;1727429;28;20205;-69
2023/01/09 06:34:27;;;;;;;1.37;0.60;;;6.20;97.20;;;;;;1727491;28;20223;-68
2023/01/09 06:35:19;;;;;;;1.98;0.70;;;6.20;97.20;;;;;;1727496;28;20200;-67
2023/01/09 06:36:11;;;;;;;1.10;0.70;;;6.30;97.20;;;;;;1727401;28;20283;-67
2023/01/09 06:37:01;;;;;;;1.27;0.70;;;6.30;97.20;;;;;;1727253;28;20196;-68
2023/01/09 06:37:53;;;;;;;4.53;0.90;;;6.30;97.20;;;;;;1727431;28;20204;-68
2023/01/09 06:38:44;;;;;;;4.97;0.73;;;6.30;97.20;;;;;;1727000;28;20886;-68
2023/01/09 06:39:35;;;;;;;1.27;0.70;;;6.30;97.20;;;;;;1727463;28;20557;-68
2023/01/09 06:40:26;;;;;;;1.75;0.90;;;6.30;97.20;;;;;;1727034;28;20235;-68
2023/01/09 06:41:18;;;;;;;1.90;0.80;;;6.30;97.20;;;;;;1727170;28;20200;-68
2023/01/09 06:42:09;;;;;;;3.47;1.02;;;6.30;97.20;;;;;;1727440;28;20601;-68
2023/01/09 06:42:59;;;;;;;3.53;0.90;;;6.30;97.20;;;;;;1727436;28;20226;-68
2023/01/09 06:43:51;;;;;;;2.00;1.20;;;6.30;97.20;;;;;;1727438;28;20207;-68
2023/01/09 06:44:42;;;;;;;2.35;0.80;;;6.30;97.20;;;;;;1727388;28;20204;-68
2023/01/09 06:45:34;;;;;;;1.90;1.07;;;6.30;97.20;;;;;;1727548;28;20243;-68
2023/01/09 06:46:26;;;;;;;2.30;0.80;;;6.30;97.20;;;;;;1727337;28;20584;-69
2023/01/09 06:47:17;;;;;;;1.95;0.80;;;6.30;97.20;;;;;;1727293;28;20209;-68
2023/01/09 06:48:08;;;;;;;1.98;0.80;;;6.30;97.20;;;;;;1727438;28;20581;-68
2023/01/09 06:49:00;;;;;;;0.80;0.70;;;6.30;97.20;;;;;;1726970;28;20267;-68
2023/01/09 06:49:51;;;;;;;2.83;0.90;;;6.30;97.20;;;;;;1727188;28;20200;-68
2023/01/09 06:50:44;;;;;;;4.37;0.90;;;6.20;97.20;;;;;;1727313;28;20220;-68
2023/01/09 06:51:35;;;;;;;2.35;0.70;;;6.20;97.20;;;;;;1727119;28;20200;-68
2023/01/09 06:52:26;;;;;;;2.33;0.90;;;6.20;97.20;;;;;;1727265;28;20204;-68
2023/01/09 06:53:17;;;;;;;2.92;1.10;;;6.30;97.20;;;;;;1724250;28;20215;-67
2023/01/09 06:54:09;;;;;;;2.30;0.83;;;6.30;97.20;;;;;;1723429;28;20208;-68
2023/01/09 06:55:00;;;;;;;2.03;0.80;;;6.30;97.20;;;;;;1726911;28;20235;-68
2023/01/09 06:55:52;;;;;;;2.20;0.70;;;6.30;97.20;;;;;;1726961;28;20305;-68
2023/01/09 06:56:42;;;;;;;5.05;0.90;;;6.30;97.20;;;;;;1726957;28;20204;-68
2023/01/09 06:57:34;;;;;;;1.73;0.90;;;6.30;97.20;;;;;;1727201;28;20200;-68
2023/01/09 06:58:25;;;;;;;1.10;0.80;;;6.30;97.20;;;;;;1727041;28;20232;-68
2023/01/09 06:59:17;;;;;;;2.43;0.80;;;6.40;97.20;;;;;;1726856;28;20200;-68
2023/01/09 07:00:10;;;;;;;3.58;1.00;;;6.40;97.20;;;;;;1726255;28;20458;-68
2023/01/09 07:01:02;;;;;;;4.25;0.80;;;6.40;97.20;;;;;;1727151;28;20215;-68
2023/01/09 07:01:54;;;;;;;4.07;1.10;;;6.50;97.20;;;;;;1726834;28;20682;-68
2023/01/09 07:02:46;;;;;;;3.20;0.82;;;6.50;97.20;;;;;;1727183;28;20205;-67
2023/01/09 07:03:37;;;;;;;1.55;0.85;;;6.50;97.20;;;;;;1727193;28;20208;-67
2023/01/09 07:04:28;;;;;;;1.87;1.10;;;6.60;97.20;;;;;;1727153;28;20283;-68
2023/01/09 07:05:19;;;;;;;2.58;1.00;;;6.60;97.20;;;;;;1727196;28;20215;-68
2023/01/09 07:06:11;;;;;;;2.57;1.20;;;6.60;97.20;;;;;;1727253;28;20200;-68
2023/01/09 07:07:01;;;;;;;4.55;0.85;;;6.60;97.20;;;;;;1726620;28;20196;-68
2023/01/09 07:07:53;;;;;;;1.27;0.80;;;6.60;97.20;;;;;;1727266;28;20200;-68
2023/01/09 07:08:44;;;;;;;1.48;0.60;;;6.60;97.20;;;;;;1726533;28;20200;-68
2023/01/09 07:09:36;;;;;;;4.60;1.00;;;6.70;97.20;;;;;;1727232;28;20204;-68
2023/01/09 07:10:28;;;;;;;1.83;0.93;;;6.70;97.20;;;;;;1726838;28;20207;-68
2023/01/09 07:11:18;;;;;;;2.00;1.10;;;6.70;97.20;;;;;;1727210;28;20207;-68
2023/01/09 07:12:11;;;;;;;2.30;0.83;;;6.80;97.20;;;;;;1726957;28;20188;-68
2023/01/09 07:13:02;;;;;;;1.80;0.80;;;6.80;97.20;;;;;;1726997;28;20208;-68
2023/01/09 07:13:54;;;;;;;13.60;1.20;;;6.80;97.20;;;;;;1727136;28;20307;-67
2023/01/09 07:14:45;;;;;;;3.38;1.00;;;6.90;97.20;;;;;;1727017;28;20239;-68
2023/01/09 07:15:37;;;;;;;2.40;0.93;;;6.90;97.20;;;;;;1727199;28;20224;-68
2023/01/09 07:16:27;;;;;;;2.20;1.10;;;6.90;97.20;;;;;;1727072;28;20207;-68
2023/01/09 07:17:20;;;;;;;2.17;1.17;;;6.90;97.20;;;;;;1726721;28;20196;-68
2023/01/09 07:18:11;;;;;;;3.28;0.80;;;6.90;97.20;;;;;;1727176;28;20205;-68
2023/01/09 07:19:03;;;;;;;2.67;0.70;;;7.00;97.20;;;;;;1726527;28;20202;-68
2023/01/09 07:19:54;;;;;;;2.95;1.17;;;7.00;97.20;;;;;;1726952;28;20204;-68
2023/01/09 07:20:45;;;;;;;2.27;0.87;;;7.00;97.20;;;;;;1726945;28;20261;-68
2023/01/09 07:21:36;;;;;;;1.80;1.00;;;7.00;97.20;;;;;;1727073;28;20242;-68
2023/01/09 07:22:28;;;;;;;2.30;0.80;;;7.00;97.20;;;;;;1726932;28;20203;-68
2023/01/09 07:23:19;;;;;;;2.15;0.77;;;7.00;97.20;;;;;;1727292;28;20201;-68
2023/01/09 07:24:10;;;;;;;2.40;1.00;;;7.00;97.20;;;;;;1726863;28;20196;-68
2023/01/09 07:25:01;;;;;;;3.60;0.77;;;7.00;97.20;;;;;;1727111;28;20471;-68
2023/01/09 07:25:53;;;;;;;1.80;0.90;;;7.00;97.20;;;;;;1727126;28;20200;-68
2023/01/09 07:26:44;;;;;;;2.65;0.70;;;7.00;97.20;;;;;;1726823;28;20676;-67
2023/01/09 07:27:35;;;;;;;2.13;0.73;;;7.00;97.20;;;;;;1720364;28;20609;-68
2023/01/09 07:28:26;;;;;;;3.63;1.00;;;7.00;97.20;;;;;;1720293;28;20632;-68
2023/01/09 07:29:18;;;;;;;1.70;1.27;;;7.00;97.20;;;;;;1723897;28;20224;-68
2023/01/09 07:30:10;;;;;;;1.98;0.80;;;7.00;97.20;;;;;;1729569;28;20204;-68
2023/01/09 07:31:03;;;;;;;2.25;0.90;;;7.00;97.20;;;;;;1726303;28;20226;-68
2023/01/09 07:31:54;;;;;;;4.18;1.20;;;7.00;97.20;;;;;;1727057;28;20624;-67
2023/01/09 07:32:47;;;;;;;4.20;1.00;;;7.00;97.20;;;;;;1727048;28;20270;-68
2023/01/09 07:33:39;;;;;;;1.50;0.60;;;7.00;97.20;;;;;;1727225;28;20216;-68
2023/01/09 07:34:30;;;;;;;1.27;0.68;;;7.10;97.20;;;;;;1727100;28;20197;-68
2023/01/09 07:35:21;;;;;;;1.98;1.00;;;7.10;97.20;;;;;;1727079;28;20232;-69
2023/01/09 07:36:13;;;;;;;2.57;0.90;;;7.10;97.20;;;;;;1727199;28;20203;-67
2023/01/09 07:37:03;;;;;;;3.28;1.10;;;7.10;97.20;;;;;;1725933;28;20670;-69
2023/01/09 07:37:55;;;;;;;2.13;0.87;;;7.10;97.20;;;;;;1727086;28;20686;-68
2023/01/09 07:38:46;;;;;;;2.13;1.00;;;7.10;97.20;;;;;;1726202;28;20200;-67
2023/01/09 07:39:38;;;;;;;2.37;0.90;;;7.10;97.20;;;;;;1727152;28;20204;-68
2023/01/09 07:40:28;;;;;;;2.13;1.02;;;7.10;97.20;;;;;;1726770;28;20212;-67
2023/01/09 07:41:20;;;;;;;3.53;1.00;;;7.10;97.20;;;;;;1727142;28;20242;-68
2023/01/09 07:42:11;;;;;;;4.68;1.33;;;7.10;97.20;;;;;;1727153;28;20658;-68
2023/01/09 07:43:03;;;;;;;2.60;1.35;;;7.10;97.20;;;;;;1726986;28;20605;-68
2023/01/09 07:43:55;;;;;;;2.75;0.80;;;7.10;97.20;;;;;;1727200;28;20204;-66
2023/01/09 07:44:46;;;;;;;1.60;1.00;;;7.10;97.20;;;;;;1726888;28;20254;-68
2023/01/09 07:45:37;;;;;;;2.17;1.02;;;7.10;97.20;;;;;;1727177;28;20204;-67
2023/01/09 07:46:29;;;;;;;3.47;0.90;;;7.10;97.20;;;;;;1726868;28;20992;-67
2023/01/09 07:47:20;;;;;;;2.55;0.88;;;7.10;97.20;;;;;;1726010;28;20204;-68
2023/01/09 07:48:13;;;;;;;1.90;1.00;;;7.10;97.20;;;;;;1726534;28;20210;-68
2023/01/09 07:49:04;;;;;;;2.13;1.00;;;7.10;97.20;;;;;;1725985;28;20211;-68
2023/01/09 07:49:55;;;;;;;3.70;1.07;;;7.10;97.20;;;;;;1726322;28;20207;-67
2023/01/09 07:50:46;;;;;;;2.80;1.08;;;7.10;97.20;;;;;;1726776;28;20467;-68
2023/01/09 07:51:41;;;;;;;1.60;0.87;;;7.10;97.20;;;;;;1727119;28;20204;-67
2023/01/09 07:52:32;;;;;;;3.92;0.90;;;7.10;97.20;;;;;;1727092;28;20278;-67
2023/01/09 07:53:24;;;;;;;2.20;1.07;;;7.00;97.20;;;;;;1727104;28;20208;-68
2023/01/09 07:54:15;;;;;;;1.13;0.90;;;7.00;97.20;;;;;;1727199;28;20666;-69
2023/01/09 07:55:08;;;;;;;3.03;0.90;;;7.00;97.20;;;;;;1727078;28;20563;-68
2023/01/09 07:56:00;;;;;;;3.88;1.20;;;7.00;97.20;;;;;;1727153;28;20447;-68
2023/01/09 07:56:51;;;;;;;1.60;0.80;;;7.00;97.20;;;;;;1719468;28;20729;-68
2023/01/09 07:57:42;;;;;;;2.03;0.90;;;7.00;97.20;;;;;;1729470;28;20200;-68
2023/01/09 07:58:34;;;;;;;2.13;0.80;;;7.00;97.20;;;;;;1726705;28;20224;-70
2023/01/09 07:59:26;;;;;;;4.28;1.02;;;7.00;97.20;;;;;;1726625;28;20674;-68
2023/01/09 08:00:20;;;;;;;3.42;1.55;;;7.00;97.20;;;;;;1726708;28;20205;-69
2023/01/09 08:01:11;;;;;;;2.70;1.20;;;7.00;97.20;;;;;;1726818;28;20228;-68
2023/01/09 08:02:04;;;;;;;3.10;1.03;;;7.00;97.20;;;;;;1726735;28;20208;-68
2023/01/09 08:02:55;;;;;;;1.30;0.90;;;7.00;97.20;;;;;;1726942;28;20526;-69
2023/01/09 08:03:48;;;;;;;2.70;1.10;;;7.00;97.20;;;;;;1726827;28;20216;-68
2023/01/09 08:04:38;;;;;;;2.70;0.70;;;7.00;97.20;;;;;;1727054;28;20208;-68
2023/01/09 08:05:30;;;;;;;3.40;0.80;;;7.00;97.20;;;;;;1726952;28;20196;-68
2023/01/09 08:06:21;;;;;;;2.13;0.80;;;7.10;97.20;;;;;;1726939;28;20228;-68
2023/01/09 08:07:12;;;;;;;2.20;0.80;;;7.10;97.20;;;;;;1726132;28;20203;-68
2023/01/09 08:08:03;;;;;;;3.15;0.88;;;7.10;97.20;;;;;;1726956;28;20223;-68
2023/01/09 08:08:56;;;;;;;2.40;0.77;;;7.10;97.20;;;;;;1726382;28;20315;-68
2023/01/09 08:09:47;;;;;;;5.18;1.20;;;7.20;97.20;;;;;;1726558;28;20459;-68
2023/01/09 08:10:38;;;;;;;2.53;0.90;;;7.20;97.20;;;;;;1726406;28;20216;-68
2023/01/09 08:11:31;;;;;;;2.83;1.02;;;7.20;97.20;;;;;;1726830;28;20220;-67
2023/01/09 08:12:22;;;;;;;4.13;1.02;;;7.30;97.20;;;;;;1726783;28;20211;-67
2023/01/09 08:13:13;;;;;;;2.65;0.82;;;7.30;97.20;;;;;;1726968;28;20219;-68
2023/01/09 08:14:05;;;;;;;2.60;0.93;;;7.30;97.20;;;;;;1726857;28;20227;-68
2023/01/09 08:14:56;;;;;;;4.05;1.10;;;7.40;97.20;;;;;;1726793;28;20237;-67
2023/01/09 08:15:47;;;;;;;3.80;1.27;;;7.40;97.20;;;;;;1726830;28;20320;-68
2023/01/09 08:16:38;;;;;;;3.10;1.10;;;7.50;97.20;;;;;;1726484;28;20949;-68
2023/01/09 08:17:30;;;;;;;2.27;0.80;;;7.50;97.20;;;;;;1726585;28;20580;-68
2023/01/09 08:18:21;;;;;;;2.45;0.90;;;7.50;97.20;;;;;;1726765;28;20207;-68
2023/01/09 08:19:14;;;;;;;2.90;1.00;;;7.60;97.20;;;;;;1725829;28;20197;-69
2023/01/09 08:20:05;;;;;;;3.80;1.10;;;7.60;97.20;;;;;;1726731;28;20212;-68
2023/01/09 08:20:57;;;;;;;1.52;0.95;;;7.60;97.20;;;;;;1726859;28;20320;-68
2023/01/09 08:21:47;;;;;;;5.53;0.90;;;7.60;97.20;;;;;;1726758;28;20623;-68
2023/01/09 08:22:41;;;;;;;1.67;0.80;;;7.50;97.20;;;;;;1726863;28;20224;-68
2023/01/09 08:23:32;;;;;;;2.45;0.98;;;7.50;97.20;;;;;;1726960;28;20232;-68
2023/01/09 08:24:24;;;;;;;3.17;1.10;;;7.50;97.20;;;;;;1726758;28;20255;-68
2023/01/09 08:25:16;;;;;;;6.05;1.20;;;7.50;97.20;;;;;;1726877;28;20231;-68
2023/01/09 08:26:07;;;;;;;2.85;0.90;;;7.50;97.20;;;;;;1726790;28;20278;-68
2023/01/09 08:26:58;;;;;;;3.30;0.80;;;7.60;97.20;;;;;;1726791;28;20211;-68
2023/01/09 08:27:50;;;;;;;2.70;1.20;;;7.60;97.20;;;;;;1726386;28;20199;-68
2023/01/09 08:28:41;;;;;;;4.30;1.15;;;7.60;97.20;;;;;;1726457;28;20208;-68
2023/01/09 08:29:32;;;;;;;1.90;0.90;;;7.70;97.20;;;;;;1726703;28;20208;-68
2023/01/09 08:30:23;;;;;;;3.13;0.80;;;7.70;97.20;;;;;;1726549;28;20208;-68
2023/01/09 08:31:15;;;;;;;0.90;0.70;;;7.80;97.20;;;;;;1726880;28;20207;-68
2023/01/09 08:32:05;;;;;;;1.92;1.10;;;7.90;97.20;;;;;;1720940;28;20204;-67
2023/01/09 08:32:57;;;;;;;4.70;1.67;;;8.00;97.20;;;;;;1723448;28;20197;-68
2023/01/09 08:33:48;;;;;;;2.42;0.95;;;8.00;97.20;;;;;;1723397;28;20197;-68
2023/01/09 08:34:41;;;;;;;3.83;0.90;;;8.10;97.20;;;;;;1724066;28;20205;-67
2023/01/09 08:35:32;;;;;;;5.10;0.80;;;8.20;97.20;;;;;;1724368;28;20475;-68
2023/01/09 08:36:24;;;;;;;2.20;0.80;;;8.30;97.20;;;;;;1725961;28;20299;-68
2023/01/09 08:37:14;;;;;;;2.17;1.00;;;8.40;97.20;;;;;;1726992;28;20839;-68
2023/01/09 08:38:06;;;;;;;2.07;1.13;;;8.50;97.20;;;;;;1727279;28;20576;-68
2023/01/09 08:38:57;;;;;;;2.65;0.88;;;8.50;97.20;;;;;;1726231;28;20221;-68
2023/01/09 08:39:49;;;;;;;4.10;1.80;;;8.60;97.20;;;;;;1726879;28;20292;-68
2023/01/09 08:40:39;;;;;;;2.92;0.80;;;8.70;97.20;;;;;;1728007;28;20255;-68
2023/01/09 08:47:32;;;;;;;2.10;0.90;;;10.70;97.20;;;;;;1727519;28;20203;-69
2023/01/09 08:48:23;;;;;;;2.13;0.75;;;11.00;97.20;;;;;;1727958;28;20212;-68
2023/01/09 08:49:14;;;;;;;2.85;1.10;;;11.30;97.20;;;;;;1727522;28;21024;-68
2023/01/09 08:50:08;;;;;;;3.47;1.20;;;12.00;97.20;;;;;;1727699;28;20560;-68
2023/01/09 08:50:59;;;;;;;2.17;1.02;;;12.60;97.20;;;;;;1727890;28;20228;-68
2023/01/09 08:51:51;;;;;;;2.00;1.10;;;13.00;97.20;;;;;;1727973;28;20201;-68
2023/01/09 08:52:41;;;;;;;3.05;0.90;;;13.00;97.20;;;;;;1727669;28;20200;-68
2023/01/09 08:53:33;;;;;;;2.83;1.13;;;13.20;97.20;;;;;;1727869;28;20224;-68
2023/01/09 08:54:24;;;;;;;2.47;1.02;;;13.10;97.20;;;;;;1727798;28;20211;-68
2023/01/09 08:55:15;;;;;;;4.93;1.00;;;12.90;97.20;;;;;;1727523;28;20200;-68
2023/01/09 08:56:06;;;;;;;1.85;0.70;;;13.00;97.20;;;;;;1727253;28;20200;-67
2023/01/09 08:56:58;;;;;;;2.73;1.00;;;13.70;97.20;;;;;;1727213;28;20323;-68
2023/01/09 08:57:50;;;;;;;2.30;0.80;;;14.30;97.20;;;;;;1727169;28;20440;-69
2023/01/09 08:58:43;;;;;;;1.67;1.10;;;15.30;97.20;;;;;;1727139;28;20236;-68
2023/01/09 08:59:34;;;;;;;3.05;1.42;;;16.10;97.20;;;;;;1727281;28;20215;-68
2023/01/09 09:00:26;;;;;;;1.90;0.90;;;16.80;97.20;;;;;;1727313;28;20236;-68
2023/01/09 09:01:17;;;;;;;1.98;1.08;;;17.20;97.20;;;;;;1728000;28;20220;-68
2023/01/09 09:02:09;;;;;;;3.47;1.00;;;17.40;97.20;;;;;;1728008;28;20236;-68
2023/01/09 09:03:00;;;;;;;2.53;1.13;;;17.40;97.20;;;;;;1727462;28;20212;-68
2023/01/09 09:03:52;;;;;;;1.40;0.80;;;17.10;97.20;;;;;;1722253;28;20296;-68
2023/01/09 09:04:43;;;;;;;3.22;1.00;;;17.00;97.20;;;;;;1724900;28;21059;-68
2023/01/09 09:05:36;;;;;;;2.50;0.87;;;16.80;97.20;;;;;;1725346;28;20677;-69
2023/01/09 09:06:27;;;;;;;2.40;0.82;;;16.80;97.20;;;;;;1721153;28;20202;-68
2023/01/09 09:07:25;;;;;;;2.53;0.90;;;16.70;97.20;;;;;;1720913;28;20663;-69
2023/01/09 09:08:16;;;;;;;2.35;0.95;;;16.50;97.20;;;;;;1728021;28;20200;-68
2023/01/09 09:09:07;;;;;;;2.25;0.93;;;16.50;97.20;;;;;;1727358;28;20208;-68
2023/01/09 09:09:59;;;;;;;2.40;0.90;;;16.30;97.20;;;;;;1727341;28;20204;-69
2023/01/09 09:11:00;;;;;;;2.63;0.80;;;16.20;97.20;;;;;;1727915;28;20228;-69
2023/01/09 09:11:50;;;;;;;2.40;0.80;;;16.20;97.20;;;;;;1721045;28;20204;-69
2023/01/09 09:12:42;;;;;;;3.60;1.20;;;16.40;97.20;;;;;;1721298;28;20280;-69
2023/01/09 09:13:33;;;;;;;4.07;1.00;;;16.70;97.20;;;;;;1721386;28;20201;-68
2023/01/09 09:15:36;;;;;;;4.07;1.50;;;17.40;97.20;;;;;;1721116;28;20240;-69
2023/01/09 09:16:28;;;;;;;1.45;0.70;;;18.00;97.20;;;;;;1721206;28;20682;-69
2023/01/09 09:17:19;;;;;;;2.58;0.93;;;18.60;97.20;;;;;;1720992;28;20205;-69
2023/01/09 09:18:10;;;;;;;4.77;1.10;;;18.30;97.20;;;;;;1726942;28;20196;-69
2023/01/09 09:19:01;;;;;;;2.10;1.00;;;18.30;97.20;;;;;;1727536;28;20666;-68
2023/01/09 09:19:53;;;;;;;2.17;1.00;;;18.70;97.20;;;;;;1727710;28;20782;-69
2023/01/09 09:20:46;;;;;;;1.85;1.02;;;18.80;97.20;;;;;;1727553;28;20287;-69
2023/01/09 09:21:37;;;;;;;5.10;1.10;;;18.40;97.20;;;;;;1727826;28;20595;-69
2023/01/09 09:22:29;;;;;;;2.90;0.95;;;18.10;97.20;;;;;;1727774;28;20678;-69
2023/01/09 09:23:22;;;;;;;1.27;0.80;;;17.80;97.20;;;;;;1727859;28;20811;-69
2023/01/09 09:24:12;;;;;;;2.40;1.10;;;18.20;97.20;;;;;;1727867;28;20720;-69
2023/01/09 09:25:05;;;;;;;3.57;0.80;;;18.00;97.20;;;;;;1727894;28;20606;-69
2023/01/09 09:25:56;;;;;;;4.38;1.23;;;18.00;97.20;;;;;;1727851;28;20208;-69
2023/01/09 09:26:52;;;;;;;3.33;0.95;;;17.70;97.20;;;;;;1727479;28;20258;-68
2023/01/09 09:27:44;;;;;;;2.83;1.00;;;17.50;97.20;;;;;;1727302;28;20589;-68
2023/01/09 09:28:35;;;;;;;3.25;0.70;;;17.10;97.20;;;;;;1727420;28;20204;-68
2023/01/09 09:29:27;;;;;;;2.20;1.37;;;17.20;97.20;;;;;;1727715;28;20200;-68
2023/01/09 09:30:36;;;;;;;6.05;2.22;;;17.20;97.20;;;;;;1727540;28;20205;-69
2023/01/09 09:31:27;;;;;;;6.50;3.25;;;16.90;97.20;;;;;;1727813;28;20205;-69
2023/01/09 09:32:18;;;;;;;4.20;2.57;;;16.60;97.20;;;;;;1728011;28;20200;-68
2023/01/09 09:33:12;;;;;;;2.90;1.65;;;16.30;97.20;;;;;;1727860;28;20208;-69
2023/01/09 09:34:05;;;;;;;3.03;1.40;;;16.10;97.20;;;;;;1727645;28;20200;-68
2023/01/09 09:34:56;;;;;;;2.80;0.98;;;16.90;97.20;;;;;;1727903;28;20753;-69
2023/01/09 09:35:49;;;;;;;3.13;0.90;;;16.80;97.20;;;;;;1727758;28;20573;-69
2023/01/09 09:36:43;;;;;;;1.83;1.20;;;16.80;97.20;;;;;;1727593;28;20208;-68
2023/01/09 09:37:34;;;;;;;3.40;1.00;;;16.50;97.20;;;;;;1727443;28;20259;-69
2023/01/09 09:38:26;;;;;;;5.28;1.65;;;16.20;97.20;;;;;;1727740;28;20565;-69
2023/01/09 09:39:17;;;;;;;2.58;1.00;;;15.90;97.20;;;;;;1727325;28;20211;-69
2023/01/09 09:40:16;;;;;;;2.27;1.23;;;15.50;97.20;;;;;;1727531;28;20211;-68
2023/01/09 09:44:42;;;;;;;2.60;1.10;;;13.80;97.20;;;;;;1725710;28;20235;-69
2023/01/09 09:45:46;;;;;;;2.30;1.05;;;13.30;97.20;;;;;;1727801;28;20521;-68
2023/01/09 09:46:44;;;;;;;5.50;1.10;;;12.90;97.20;;;;;;1727621;28;20193;-68
2023/01/09 09:47:46;;;;;;;1.63;0.80;;;12.70;97.20;;;;;;1727372;28;20653;-68
2023/01/09 09:48:40;;;;;;;3.20;1.23;;;12.50;97.20;;;;;;1727392;28;20631;-68
2023/01/09 09:49:42;;;;;;;2.30;1.17;;;12.60;97.20;;;;;;1727746;28;20201;-68
2023/01/09 09:51:08;;;;;;;3.03;1.33;;;12.70;97.20;;;;;;1727621;28;20228;-68
2023/01/09 09:52:13;;;;;;;2.22;1.00;;;13.70;97.20;;;;;;1727797;28;20675;-68
2023/01/09 09:53:09;;;;;;;3.30;1.00;;;13.90;97.20;;;;;;1727827;28;20216;-68
2023/01/09 09:54:07;;;;;;;2.05;0.95;;;13.90;97.20;;;;;;1727778;28;20272;-68
2023/01/09 09:55:04;;;;;;;3.13;0.90;;;14.00;97.20;;;;;;1727881;28;20192;-68
2023/01/09 09:55:57;;;;;;;2.55;1.15;;;14.00;97.20;;;;;;1727744;28;20192;-68
2023/01/09 09:56:51;;;;;;;2.03;0.82;;;13.80;97.20;;;;;;1727572;28;20208;-68
2023/01/09 09:57:44;;;;;;;4.18;1.08;;;13.90;97.20;;;;;;1727321;28;20753;-68
2023/01/09 09:58:37;;;;;;;2.58;1.00;;;13.70;97.20;;;;;;1727356;28;20208;-68
2023/01/09 09:59:32;;;;;;;3.33;1.60;;;13.50;97.20;;;;;;1727540;28;20204;-68
2023/01/09 10:00:23;;;;;;;1.83;0.90;;;13.30;97.20;;;;;;1727553;28;20224;-68
2023/01/09 10:01:22;;;;;;;4.50;1.40;;;13.00;97.20;;;;;;1727326;28;20208;-68
2023/01/09 10:02:23;;;;;;;3.25;1.08;;;12.70;97.20;;;;;;1727823;28;20192;-68
2023/01/09 10:03:25;;;;;;;4.88;1.20;;;12.50;97.20;;;;;;1727679;28;20276;-68
2023/01/09 10:04:19;;;;;;;2.15;0.93;;;12.10;97.20;;;;;;1727645;28;20189;-68
2023/01/09 10:05:16;;;;;;;3.55;1.50;;;11.80;97.20;;;;;;1727647;28;20196;-68
2023/01/09 10:06:15;;;;;;;2.50;1.27;;;11.60;97.20;;;;;;1727584;28;20232;-68
2023/01/09 10:07:14;;;;;;;2.67;0.90;;;11.40;97.20;;;;;;1727430;28;20196;-68
2023/01/09 10:08:14;;;;;;;6.53;1.80;;;11.20;97.20;;;;;;1727108;28;20196;-68
2023/01/09 10:09:12;;;;;;;3.33;1.27;;;11.00;97.20;;;;;;1727151;28;20196;-67
2023/01/09 10:10:10;;;;;;;2.40;1.05;;;10.80;97.20;;;;;;1727011;28;20184;-68
2023/01/09 10:11:01;;;;;;;2.65;1.15;;;10.60;97.20;;;;;;1727445;28;20213;-67
2023/01/09 10:11:59;;;;;;;2.50;0.88;;;10.40;97.20;;;;;;1727040;28;20421;-68
2023/01/09 10:12:53;;;;;;;2.20;1.05;;;10.40;97.20;;;;;;1727651;28;20193;-68
2023/01/09 10:15:15;;;;;;;2.15;0.95;;;10.30;97.20;;;;;;1709868;28;20354;-68
2023/01/09 10:16:20;;;;;;;3.35;1.15;;;10.20;97.20;;;;;;1714394;28;20212;-68
2023/01/09 10:17:35;;;;;;;3.92;1.42;;;10.20;97.20;;;;;;1720629;28;20558;-68
2023/01/09 10:18:38;;;;;;;2.38;1.05;;;10.10;97.20;;;;;;1720853;28;20623;-68
2023/01/09 10:19:44;;;;;;;3.25;1.35;;;10.10;97.20;;;;;;1720620;28;20233;-68
2023/01/09 10:20:56;;;;;;;3.72;1.00;;;10.10;97.20;;;;;;1720647;28;20230;-68
2023/01/09 10:21:58;;;;;;;1.70;1.05;;;10.20;97.20;;;;;;1720476;28;20217;-67
2023/01/09 10:22:57;;;;;;;3.65;1.70;;;10.30;97.20;;;;;;1720808;28;20698;-68
2023/01/09 10:24:10;;;;;;;2.58;0.88;;;10.30;97.20;;;;;;1720582;28;20209;-68
2023/01/09 10:25:14;;;;;;;4.35;1.15;;;10.30;97.20;;;;;;1723800;28;20208;-68
2023/01/09 10:26:10;;;;;;;4.20;1.17;;;10.30;97.20;;;;;;1727391;28;20212;-68
2023/01/09 10:27:09;;;;;;;2.97;1.05;;;10.20;97.20;;;;;;1727347;28;20195;-68
2023/01/09 10:28:17;;;;;;;2.90;1.17;;;10.20;97.20;;;;;;1728621;28;20199;-68
2023/01/09 10:29:34;;;;;;;5.07;0.90;;;10.20;97.20;;;;;;1727320;28;20200;-68
2023/01/09 10:30:32;;;;;;;2.10;1.10;;;10.20;97.20;;;;;;1727350;28;20239;-68
2023/01/09 10:31:31;;;;;;;3.63;1.00;;;10.20;97.20;;;;;;1727744;28;20204;-68
2023/01/09 10:32:36;;;;;;;3.65;0.95;;;10.20;97.20;;;;;;1727571;28;20253;-68
2023/01/09 10:33:41;;;;;;;2.97;1.33;;;10.10;97.20;;;;;;1727344;28;20208;-68
2023/01/09 10:34:48;;;;;;;3.38;1.00;;;10.10;97.20;;;;;;1727454;28;20567;-68
2023/01/09 10:35:58;;;;;;;2.72;1.08;;;10.10;97.20;;;;;;1720714;28;20206;-68
2023/01/09 10:37:01;;;;;;;2.78;0.90;;;10.10;97.20;;;;;;1720325;28;20567;-68
2023/01/09 10:37:55;;;;;;;4.65;1.20;;;10.10;97.20;;;;;;1720615;28;20252;-67
2023/01/09 10:38:49;;;;;;;3.03;0.95;;;10.00;97.20;;;;;;1720187;28;20242;-67
2023/01/09 10:39:46;;;;;;;5.22;1.63;;;10.00;97.20;;;;;;1720670;28;20234;-68
2023/01/09 10:40:42;;;;;;;5.03;1.60;;;9.90;97.20;;;;;;1720769;28;20703;-68
2023/01/09 10:41:38;;;;;;;1.95;0.90;;;9.90;97.20;;;;;;1720504;28;20196;-68
2023/01/09 10:42:35;;;;;;;3.40;1.35;;;9.80;97.20;;;;;;1720668;28;20565;-68
2023/01/09 10:43:33;;;;;;;3.38;1.60;;;9.80;97.20;;;;;;1720579;28;20197;-68
2023/01/09 10:44:32;;;;;;;2.55;1.40;;;9.80;97.20;;;;;;1723786;28;20553;-67
2023/01/09 10:45:28;;;;;;;3.00;1.05;;;9.70;97.20;;;;;;1727367;28;20540;-68
2023/01/09 10:46:24;;;;;;;3.58;1.10;;;9.70;97.20;;;;;;1727507;28;20196;-68
2023/01/09 10:47:20;;;;;;;4.18;1.20;;;9.70;97.20;;;;;;1727267;28;20185;-68
2023/01/09 10:48:19;;;;;;;2.03;1.00;;;9.60;97.20;;;;;;1727421;28;20189;-69
2023/01/09 10:49:15;;;;;;;2.92;1.10;;;9.60;97.20;;;;;;1726775;28;20209;-68
2023/01/09 10:50:20;;;;;;;1.52;0.80;;;9.60;97.20;;;;;;1727144;28;20271;-68
2023/01/09 10:51:17;;;;;;;3.65;1.10;;;9.50;97.20;;;;;;1727322;28;20201;-67
2023/01/09 10:52:17;;;;;;;3.58;1.42;;;9.50;97.20;;;;;;1727151;28;20196;-71